sensor_id;sensor_type;location;lat;lon;timestamp;P1;durP1;ratioP1;P2;durP2;ratioP2
21036;SDS011;10677;50.942;4.028;2023-02-25T00:01:24;10.73;;;2.55;;
21036;SDS011;10677;50.942;4.028;2023-02-25T00:03:52;12.00;;;2.13;;
21036;SDS011;10677;50.942;4.028;2023-02-25T00:06:19;15.52;;;2.80;;
21036;SDS011;10677;50.942;4.028;2023-02-25T00:08:49;10.02;;;1.98;;
21036;SDS011;10677;50.942;4.028;2023-02-25T00:11:16;11.50;;;2.10;;
21036;SDS011;10677;50.942;4.028;2023-02-25T00:13:43;14.32;;;2.97;;
21036;SDS011;10677;50.942;4.028;2023-02-25T00:16:09;10.85;;;2.22;;
21036;SDS011;10677;50.942;4.028;2023-02-25T00:18:36;9.95;;;2.13;;
21036;SDS011;10677;50.942;4.028;2023-02-25T00:21:05;17.60;;;2.42;;
21036;SDS011;10677;50.942;4.028;2023-02-25T00:23:33;12.52;;;1.90;;
21036;SDS011;10677;50.942;4.028;2023-02-25T00:25:59;13.48;;;2.08;;
21036;SDS011;10677;50.942;4.028;2023-02-25T00:28:31;13.45;;;2.50;;
21036;SDS011;10677;50.942;4.028;2023-02-25T00:30:58;11.10;;;2.38;;
21036;SDS011;10677;50.942;4.028;2023-02-25T00:33:23;10.05;;;2.15;;
21036;SDS011;10677;50.942;4.028;2023-02-25T00:35:49;11.32;;;1.70;;
21036;SDS011;10677;50.942;4.028;2023-02-25T00:38:15;13.15;;;2.00;;
21036;SDS011;10677;50.942;4.028;2023-02-25T00:40:42;11.13;;;2.00;;
21036;SDS011;10677;50.942;4.028;2023-02-25T00:43:07;9.73;;;1.80;;
21036;SDS011;10677;50.942;4.028;2023-02-25T00:45:33;15.98;;;2.65;;
21036;SDS011;10677;50.942;4.028;2023-02-25T00:47:59;12.15;;;2.35;;
21036;SDS011;10677;50.942;4.028;2023-02-25T00:50:25;9.90;;;2.03;;
21036;SDS011;10677;50.942;4.028;2023-02-25T00:52:51;12.10;;;2.40;;
21036;SDS011;10677;50.942;4.028;2023-02-25T00:55:16;10.75;;;1.80;;
21036;SDS011;10677;50.942;4.028;2023-02-25T00:57:42;11.73;;;2.35;;
21036;SDS011;10677;50.942;4.028;2023-02-25T01:00:08;13.85;;;2.45;;
21036;SDS011;10677;50.942;4.028;2023-02-25T01:02:40;9.10;;;1.88;;
21036;SDS011;10677;50.942;4.028;2023-02-25T01:05:10;8.90;;;1.33;;
21036;SDS011;10677;50.942;4.028;2023-02-25T01:07:39;8.05;;;1.27;;
21036;SDS011;10677;50.942;4.028;2023-02-25T01:10:06;12.95;;;1.52;;
21036;SDS011;10677;50.942;4.028;2023-02-25T01:12:32;6.93;;;1.20;;
21036;SDS011;10677;50.942;4.028;2023-02-25T01:14:58;4.70;;;1.20;;
21036;SDS011;10677;50.942;4.028;2023-02-25T01:17:24;8.60;;;1.65;;
21036;SDS011;10677;50.942;4.028;2023-02-25T01:19:49;12.32;;;1.67;;
21036;SDS011;10677;50.942;4.028;2023-02-25T01:22:15;8.38;;;1.40;;
21036;SDS011;10677;50.942;4.028;2023-02-25T01:24:41;12.18;;;1.90;;
21036;SDS011;10677;50.942;4.028;2023-02-25T01:27:06;10.80;;;1.70;;
21036;SDS011;10677;50.942;4.028;2023-02-25T01:29:36;10.95;;;2.03;;
21036;SDS011;10677;50.942;4.028;2023-02-25T01:32:04;7.95;;;1.65;;
21036;SDS011;10677;50.942;4.028;2023-02-25T01:34:31;9.40;;;2.20;;
21036;SDS011;10677;50.942;4.028;2023-02-25T01:36:58;7.05;;;1.45;;
21036;SDS011;10677;50.942;4.028;2023-02-25T01:39:24;7.13;;;1.83;;
21036;SDS011;10677;50.942;4.028;2023-02-25T01:41:51;8.18;;;1.80;;
21036;SDS011;10677;50.942;4.028;2023-02-25T01:44:31;9.82;;;1.67;;
21036;SDS011;10677;50.942;4.028;2023-02-25T01:47:02;11.02;;;1.80;;
21036;SDS011;10677;50.942;4.028;2023-02-25T01:51:56;10.95;;;2.42;;
21036;SDS011;10677;50.942;4.028;2023-02-25T01:54:28;11.90;;;2.72;;
21036;SDS011;10677;50.942;4.028;2023-02-25T01:56:55;10.63;;;2.33;;
21036;SDS011;10677;50.942;4.028;2023-02-25T01:59:22;10.77;;;2.55;;
21036;SDS011;10677;50.942;4.028;2023-02-25T02:01:51;15.75;;;2.13;;
21036;SDS011;10677;50.942;4.028;2023-02-25T02:04:17;12.75;;;3.47;;
21036;SDS011;10677;50.942;4.028;2023-02-25T02:06:44;12.15;;;2.47;;
21036;SDS011;10677;50.942;4.028;2023-02-25T02:09:15;11.77;;;2.35;;
21036;SDS011;10677;50.942;4.028;2023-02-25T02:11:46;9.90;;;1.95;;
21036;SDS011;10677;50.942;4.028;2023-02-25T02:14:19;9.43;;;2.17;;
21036;SDS011;10677;50.942;4.028;2023-02-25T02:22:16;13.07;;;2.25;;
21036;SDS011;10677;50.942;4.028;2023-02-25T02:30:52;8.23;;;1.95;;
21036;SDS011;10677;50.942;4.028;2023-02-25T02:36:37;11.30;;;2.17;;
21036;SDS011;10677;50.942;4.028;2023-02-25T02:41:45;10.85;;;1.92;;
21036;SDS011;10677;50.942;4.028;2023-02-25T02:44:16;9.30;;;1.90;;
21036;SDS011;10677;50.942;4.028;2023-02-25T02:46:58;10.82;;;1.67;;
21036;SDS011;10677;50.942;4.028;2023-02-25T02:52:27;9.65;;;2.30;;
21036;SDS011;10677;50.942;4.028;2023-02-25T02:55:05;9.13;;;1.83;;
21036;SDS011;10677;50.942;4.028;2023-02-25T02:57:46;11.05;;;1.95;;
21036;SDS011;10677;50.942;4.028;2023-02-25T03:00:15;16.60;;;2.40;;
21036;SDS011;10677;50.942;4.028;2023-02-25T03:02:49;11.05;;;2.25;;
21036;SDS011;10677;50.942;4.028;2023-02-25T03:05:22;11.32;;;2.17;;
21036;SDS011;10677;50.942;4.028;2023-02-25T03:07:53;12.52;;;2.92;;
21036;SDS011;10677;50.942;4.028;2023-02-25T03:10:38;11.57;;;2.35;;
21036;SDS011;10677;50.942;4.028;2023-02-25T03:13:04;13.40;;;2.35;;
21036;SDS011;10677;50.942;4.028;2023-02-25T03:15:31;11.50;;;2.22;;
21036;SDS011;10677;50.942;4.028;2023-02-25T03:17:58;11.60;;;2.42;;
21036;SDS011;10677;50.942;4.028;2023-02-25T03:20:39;14.02;;;3.42;;
21036;SDS011;10677;50.942;4.028;2023-02-25T03:23:10;11.27;;;2.22;;
21036;SDS011;10677;50.942;4.028;2023-02-25T03:25:47;11.45;;;2.15;;
21036;SDS011;10677;50.942;4.028;2023-02-25T03:28:23;15.90;;;2.65;;
21036;SDS011;10677;50.942;4.028;2023-02-25T03:36:36;12.00;;;2.70;;
21036;SDS011;10677;50.942;4.028;2023-02-25T03:39:17;13.70;;;3.08;;
21036;SDS011;10677;50.942;4.028;2023-02-25T03:41:48;9.98;;;2.35;;
21036;SDS011;10677;50.942;4.028;2023-02-25T03:44:17;9.18;;;2.75;;
21036;SDS011;10677;50.942;4.028;2023-02-25T03:46:46;11.50;;;2.13;;
21036;SDS011;10677;50.942;4.028;2023-02-25T03:49:17;11.85;;;2.30;;
21036;SDS011;10677;50.942;4.028;2023-02-25T03:51:47;10.10;;;2.55;;
21036;SDS011;10677;50.942;4.028;2023-02-25T03:54:15;13.75;;;3.03;;
21036;SDS011;10677;50.942;4.028;2023-02-25T03:56:46;11.15;;;3.08;;
21036;SDS011;10677;50.942;4.028;2023-02-25T03:59:13;12.45;;;2.45;;
21036;SDS011;10677;50.942;4.028;2023-02-25T04:01:41;10.52;;;2.22;;
21036;SDS011;10677;50.942;4.028;2023-02-25T04:04:09;12.45;;;2.33;;
21036;SDS011;10677;50.942;4.028;2023-02-25T04:06:35;13.10;;;1.95;;
21036;SDS011;10677;50.942;4.028;2023-02-25T04:09:01;15.10;;;2.47;;
21036;SDS011;10677;50.942;4.028;2023-02-25T04:11:27;12.40;;;2.75;;
21036;SDS011;10677;50.942;4.028;2023-02-25T04:13:53;8.35;;;2.33;;
21036;SDS011;10677;50.942;4.028;2023-02-25T04:16:19;12.23;;;2.03;;
21036;SDS011;10677;50.942;4.028;2023-02-25T04:18:44;11.90;;;2.17;;
21036;SDS011;10677;50.942;4.028;2023-02-25T04:21:20;11.95;;;2.30;;
21036;SDS011;10677;50.942;4.028;2023-02-25T04:23:55;12.57;;;2.47;;
21036;SDS011;10677;50.942;4.028;2023-02-25T04:26:22;14.77;;;2.13;;
21036;SDS011;10677;50.942;4.028;2023-02-25T04:28:48;11.68;;;2.05;;
21036;SDS011;10677;50.942;4.028;2023-02-25T04:31:13;11.10;;;3.00;;
21036;SDS011;10677;50.942;4.028;2023-02-25T04:33:39;15.00;;;2.47;;
21036;SDS011;10677;50.942;4.028;2023-02-25T04:36:05;8.23;;;2.30;;
21036;SDS011;10677;50.942;4.028;2023-02-25T04:38:45;7.57;;;2.05;;
21036;SDS011;10677;50.942;4.028;2023-02-25T04:41:10;7.07;;;2.30;;
21036;SDS011;10677;50.942;4.028;2023-02-25T04:43:36;17.35;;;3.10;;
21036;SDS011;10677;50.942;4.028;2023-02-25T04:46:02;15.18;;;2.33;;
21036;SDS011;10677;50.942;4.028;2023-02-25T04:48:27;13.73;;;2.38;;
21036;SDS011;10677;50.942;4.028;2023-02-25T04:50:53;11.68;;;2.28;;
21036;SDS011;10677;50.942;4.028;2023-02-25T04:53:19;16.65;;;1.85;;
21036;SDS011;10677;50.942;4.028;2023-02-25T04:55:44;16.90;;;2.33;;
21036;SDS011;10677;50.942;4.028;2023-02-25T04:58:10;8.32;;;2.25;;
21036;SDS011;10677;50.942;4.028;2023-02-25T05:00:37;19.02;;;2.47;;
21036;SDS011;10677;50.942;4.028;2023-02-25T05:03:02;12.02;;;1.73;;
21036;SDS011;10677;50.942;4.028;2023-02-25T05:05:28;15.98;;;3.03;;
21036;SDS011;10677;50.942;4.028;2023-02-25T05:07:54;15.25;;;4.05;;
21036;SDS011;10677;50.942;4.028;2023-02-25T05:10:20;15.40;;;4.30;;
21036;SDS011;10677;50.942;4.028;2023-02-25T05:12:45;11.27;;;2.95;;
21036;SDS011;10677;50.942;4.028;2023-02-25T05:15:11;14.00;;;2.67;;
21036;SDS011;10677;50.942;4.028;2023-02-25T05:17:37;13.02;;;2.33;;
21036;SDS011;10677;50.942;4.028;2023-02-25T05:20:03;16.90;;;3.03;;
21036;SDS011;10677;50.942;4.028;2023-02-25T05:22:36;9.85;;;2.25;;
21036;SDS011;10677;50.942;4.028;2023-02-25T05:25:02;16.38;;;2.63;;
21036;SDS011;10677;50.942;4.028;2023-02-25T05:27:29;10.65;;;3.45;;
21036;SDS011;10677;50.942;4.028;2023-02-25T05:29:54;17.40;;;3.92;;
21036;SDS011;10677;50.942;4.028;2023-02-25T05:32:20;17.38;;;3.28;;
21036;SDS011;10677;50.942;4.028;2023-02-25T05:34:46;15.40;;;2.65;;
21036;SDS011;10677;50.942;4.028;2023-02-25T05:37:11;11.60;;;2.45;;
21036;SDS011;10677;50.942;4.028;2023-02-25T05:39:37;16.52;;;2.55;;
21036;SDS011;10677;50.942;4.028;2023-02-25T05:42:03;15.82;;;2.60;;
21036;SDS011;10677;50.942;4.028;2023-02-25T05:44:28;13.25;;;2.03;;
21036;SDS011;10677;50.942;4.028;2023-02-25T05:46:54;16.83;;;2.33;;
21036;SDS011;10677;50.942;4.028;2023-02-25T05:49:21;12.05;;;2.45;;
21036;SDS011;10677;50.942;4.028;2023-02-25T05:51:47;15.63;;;3.13;;
21036;SDS011;10677;50.942;4.028;2023-02-25T05:54:13;12.25;;;2.85;;
21036;SDS011;10677;50.942;4.028;2023-02-25T05:56:39;16.50;;;3.35;;
21036;SDS011;10677;50.942;4.028;2023-02-25T05:59:05;24.98;;;3.58;;
21036;SDS011;10677;50.942;4.028;2023-02-25T06:01:31;15.80;;;2.60;;
21036;SDS011;10677;50.942;4.028;2023-02-25T06:03:57;15.15;;;2.50;;
21036;SDS011;10677;50.942;4.028;2023-02-25T06:06:23;20.48;;;3.97;;
21036;SDS011;10677;50.942;4.028;2023-02-25T06:08:51;16.55;;;2.95;;
21036;SDS011;10677;50.942;4.028;2023-02-25T06:11:21;9.68;;;2.50;;
21036;SDS011;10677;50.942;4.028;2023-02-25T06:13:49;15.15;;;2.70;;
21036;SDS011;10677;50.942;4.028;2023-02-25T06:16:16;14.55;;;2.58;;
21036;SDS011;10677;50.942;4.028;2023-02-25T06:18:43;13.05;;;2.65;;
21036;SDS011;10677;50.942;4.028;2023-02-25T06:21:10;18.77;;;3.22;;
21036;SDS011;10677;50.942;4.028;2023-02-25T06:23:38;24.05;;;3.83;;
21036;SDS011;10677;50.942;4.028;2023-02-25T06:26:06;15.80;;;3.58;;
21036;SDS011;10677;50.942;4.028;2023-02-25T06:28:33;19.33;;;4.30;;
21036;SDS011;10677;50.942;4.028;2023-02-25T06:30:59;16.05;;;3.47;;
21036;SDS011;10677;50.942;4.028;2023-02-25T06:33:25;20.70;;;3.78;;
21036;SDS011;10677;50.942;4.028;2023-02-25T06:35:53;22.80;;;4.00;;
21036;SDS011;10677;50.942;4.028;2023-02-25T06:38:19;14.73;;;3.80;;
21036;SDS011;10677;50.942;4.028;2023-02-25T06:40:45;13.05;;;3.65;;
21036;SDS011;10677;50.942;4.028;2023-02-25T06:43:13;17.27;;;3.60;;
21036;SDS011;10677;50.942;4.028;2023-02-25T06:45:39;11.00;;;2.78;;
21036;SDS011;10677;50.942;4.028;2023-02-25T06:48:05;14.35;;;3.15;;
21036;SDS011;10677;50.942;4.028;2023-02-25T06:50:31;12.38;;;2.95;;
21036;SDS011;10677;50.942;4.028;2023-02-25T06:52:57;15.00;;;3.10;;
21036;SDS011;10677;50.942;4.028;2023-02-25T06:55:24;16.35;;;2.88;;
21036;SDS011;10677;50.942;4.028;2023-02-25T06:57:50;11.70;;;3.45;;
21036;SDS011;10677;50.942;4.028;2023-02-25T07:00:17;8.65;;;2.63;;
21036;SDS011;10677;50.942;4.028;2023-02-25T07:02:43;15.50;;;2.35;;
21036;SDS011;10677;50.942;4.028;2023-02-25T07:05:08;10.98;;;2.53;;
21036;SDS011;10677;50.942;4.028;2023-02-25T07:07:34;9.48;;;3.15;;
21036;SDS011;10677;50.942;4.028;2023-02-25T07:10:00;15.95;;;2.65;;
21036;SDS011;10677;50.942;4.028;2023-02-25T07:12:25;17.52;;;2.80;;
21036;SDS011;10677;50.942;4.028;2023-02-25T07:14:51;12.18;;;1.75;;
21036;SDS011;10677;50.942;4.028;2023-02-25T07:17:16;10.95;;;1.52;;
21036;SDS011;10677;50.942;4.028;2023-02-25T07:19:42;4.55;;;1.23;;
21036;SDS011;10677;50.942;4.028;2023-02-25T07:22:11;5.53;;;0.98;;
21036;SDS011;10677;50.942;4.028;2023-02-25T07:24:39;7.95;;;1.17;;
21036;SDS011;10677;50.942;4.028;2023-02-25T07:27:04;6.97;;;1.70;;
21036;SDS011;10677;50.942;4.028;2023-02-25T07:29:30;5.22;;;1.20;;
21036;SDS011;10677;50.942;4.028;2023-02-25T07:31:56;6.72;;;1.58;;
21036;SDS011;10677;50.942;4.028;2023-02-25T07:34:21;10.35;;;2.03;;
21036;SDS011;10677;50.942;4.028;2023-02-25T07:36:47;7.70;;;1.65;;
21036;SDS011;10677;50.942;4.028;2023-02-25T07:39:12;14.55;;;2.15;;
21036;SDS011;10677;50.942;4.028;2023-02-25T07:41:38;10.38;;;1.77;;
21036;SDS011;10677;50.942;4.028;2023-02-25T07:44:04;9.63;;;1.70;;
21036;SDS011;10677;50.942;4.028;2023-02-25T07:46:31;11.38;;;1.40;;
21036;SDS011;10677;50.942;4.028;2023-02-25T07:48:56;11.80;;;1.60;;
21036;SDS011;10677;50.942;4.028;2023-02-25T07:51:23;12.90;;;1.40;;
21036;SDS011;10677;50.942;4.028;2023-02-25T07:53:50;8.48;;;1.58;;
21036;SDS011;10677;50.942;4.028;2023-02-25T07:56:17;10.50;;;1.45;;
21036;SDS011;10677;50.942;4.028;2023-02-25T07:58:44;12.07;;;2.15;;
21036;SDS011;10677;50.942;4.028;2023-02-25T08:01:11;11.05;;;1.70;;
21036;SDS011;10677;50.942;4.028;2023-02-25T08:03:43;8.07;;;1.92;;
21036;SDS011;10677;50.942;4.028;2023-02-25T08:06:09;11.63;;;1.92;;
21036;SDS011;10677;50.942;4.028;2023-02-25T08:08:35;7.88;;;1.52;;
21036;SDS011;10677;50.942;4.028;2023-02-25T08:11:08;10.32;;;1.30;;
21036;SDS011;10677;50.942;4.028;2023-02-25T08:13:35;9.73;;;1.63;;
21036;SDS011;10677;50.942;4.028;2023-02-25T08:16:05;9.70;;;1.90;;
21036;SDS011;10677;50.942;4.028;2023-02-25T08:18:32;12.98;;;1.80;;
21036;SDS011;10677;50.942;4.028;2023-02-25T08:20:58;13.13;;;1.75;;
21036;SDS011;10677;50.942;4.028;2023-02-25T08:23:24;6.85;;;1.50;;
21036;SDS011;10677;50.942;4.028;2023-02-25T08:25:54;8.75;;;1.13;;
21036;SDS011;10677;50.942;4.028;2023-02-25T08:28:21;13.82;;;1.55;;
21036;SDS011;10677;50.942;4.028;2023-02-25T08:30:48;10.48;;;1.60;;
21036;SDS011;10677;50.942;4.028;2023-02-25T08:33:14;10.20;;;1.50;;
21036;SDS011;10677;50.942;4.028;2023-02-25T08:35:40;7.03;;;1.70;;
21036;SDS011;10677;50.942;4.028;2023-02-25T08:38:07;6.40;;;1.42;;
21036;SDS011;10677;50.942;4.028;2023-02-25T08:40:33;14.25;;;1.73;;
21036;SDS011;10677;50.942;4.028;2023-02-25T08:42:59;11.65;;;2.15;;
21036;SDS011;10677;50.942;4.028;2023-02-25T08:45:25;8.98;;;1.88;;
21036;SDS011;10677;50.942;4.028;2023-02-25T08:47:50;8.75;;;1.23;;
21036;SDS011;10677;50.942;4.028;2023-02-25T08:50:17;8.13;;;1.48;;
21036;SDS011;10677;50.942;4.028;2023-02-25T08:52:44;12.73;;;2.35;;
21036;SDS011;10677;50.942;4.028;2023-02-25T08:55:10;13.05;;;2.33;;
21036;SDS011;10677;50.942;4.028;2023-02-25T08:57:39;9.85;;;2.30;;
21036;SDS011;10677;50.942;4.028;2023-02-25T09:00:05;10.13;;;1.73;;
21036;SDS011;10677;50.942;4.028;2023-02-25T09:02:33;9.18;;;1.75;;
21036;SDS011;10677;50.942;4.028;2023-02-25T09:04:59;15.55;;;1.67;;
21036;SDS011;10677;50.942;4.028;2023-02-25T09:07:24;10.07;;;2.05;;
21036;SDS011;10677;50.942;4.028;2023-02-25T09:09:51;7.97;;;1.85;;
21036;SDS011;10677;50.942;4.028;2023-02-25T09:12:17;19.30;;;1.70;;
21036;SDS011;10677;50.942;4.028;2023-02-25T09:14:43;10.80;;;1.73;;
21036;SDS011;10677;50.942;4.028;2023-02-25T09:17:09;11.52;;;2.10;;
21036;SDS011;10677;50.942;4.028;2023-02-25T09:19:35;9.60;;;1.88;;
21036;SDS011;10677;50.942;4.028;2023-02-25T09:22:06;10.35;;;1.60;;
21036;SDS011;10677;50.942;4.028;2023-02-25T09:24:33;12.10;;;1.73;;
21036;SDS011;10677;50.942;4.028;2023-02-25T09:26:59;13.02;;;1.95;;
21036;SDS011;10677;50.942;4.028;2023-02-25T09:29:35;14.93;;;2.35;;
21036;SDS011;10677;50.942;4.028;2023-02-25T09:32:03;9.30;;;1.85;;
21036;SDS011;10677;50.942;4.028;2023-02-25T09:34:29;13.65;;;1.98;;
21036;SDS011;10677;50.942;4.028;2023-02-25T09:36:57;9.93;;;1.58;;
21036;SDS011;10677;50.942;4.028;2023-02-25T09:39:24;12.07;;;1.85;;
21036;SDS011;10677;50.942;4.028;2023-02-25T09:44:37;10.70;;;1.73;;
21036;SDS011;10677;50.942;4.028;2023-02-25T09:52:34;8.25;;;1.70;;
21036;SDS011;10677;50.942;4.028;2023-02-25T09:55:24;10.30;;;1.50;;
21036;SDS011;10677;50.942;4.028;2023-02-25T09:57:58;6.50;;;1.38;;
21036;SDS011;10677;50.942;4.028;2023-02-25T10:00:26;10.52;;;2.63;;
21036;SDS011;10677;50.942;4.028;2023-02-25T10:03:01;11.82;;;1.83;;
21036;SDS011;10677;50.942;4.028;2023-02-25T10:06:09;9.13;;;1.48;;
21036;SDS011;10677;50.942;4.028;2023-02-25T10:08:35;11.70;;;1.30;;
21036;SDS011;10677;50.942;4.028;2023-02-25T10:11:09;7.45;;;1.58;;
21036;SDS011;10677;50.942;4.028;2023-02-25T10:19:31;10.68;;;1.10;;
21036;SDS011;10677;50.942;4.028;2023-02-25T10:25:15;8.90;;;1.70;;
21036;SDS011;10677;50.942;4.028;2023-02-25T10:30:29;12.93;;;2.58;;
21036;SDS011;10677;50.942;4.028;2023-02-25T10:33:12;12.57;;;2.00;;
21036;SDS011;10677;50.942;4.028;2023-02-25T10:35:42;12.23;;;1.40;;
21036;SDS011;10677;50.942;4.028;2023-02-25T10:38:08;10.38;;;1.90;;
21036;SDS011;10677;50.942;4.028;2023-02-25T10:40:36;14.77;;;2.75;;
21036;SDS011;10677;50.942;4.028;2023-02-25T10:43:18;14.10;;;2.10;;
21036;SDS011;10677;50.942;4.028;2023-02-25T10:45:45;11.35;;;1.60;;
21036;SDS011;10677;50.942;4.028;2023-02-25T10:48:20;17.15;;;2.90;;
21036;SDS011;10677;50.942;4.028;2023-02-25T10:51:02;13.23;;;1.95;;
21036;SDS011;10677;50.942;4.028;2023-02-25T10:53:31;9.98;;;1.90;;
21036;SDS011;10677;50.942;4.028;2023-02-25T10:55:57;9.88;;;1.70;;
21036;SDS011;10677;50.942;4.028;2023-02-25T11:01:18;12.02;;;1.52;;
21036;SDS011;10677;50.942;4.028;2023-02-25T11:03:50;10.80;;;1.80;;
21036;SDS011;10677;50.942;4.028;2023-02-25T11:06:34;13.88;;;2.15;;
21036;SDS011;10677;50.942;4.028;2023-02-25T11:09:02;13.52;;;2.13;;
21036;SDS011;10677;50.942;4.028;2023-02-25T11:11:31;12.35;;;1.50;;
21036;SDS011;10677;50.942;4.028;2023-02-25T11:14:24;8.90;;;2.38;;
21036;SDS011;10677;50.942;4.028;2023-02-25T11:16:51;16.02;;;2.30;;
21036;SDS011;10677;50.942;4.028;2023-02-25T11:19:29;10.50;;;1.92;;
21036;SDS011;10677;50.942;4.028;2023-02-25T11:21:59;13.18;;;1.92;;
21036;SDS011;10677;50.942;4.028;2023-02-25T11:24:39;11.55;;;2.15;;
21036;SDS011;10677;50.942;4.028;2023-02-25T11:27:07;8.65;;;1.67;;
21036;SDS011;10677;50.942;4.028;2023-02-25T11:32:41;16.98;;;1.77;;
21036;SDS011;10677;50.942;4.028;2023-02-25T11:35:16;8.38;;;1.33;;
21036;SDS011;10677;50.942;4.028;2023-02-25T11:37:53;12.80;;;1.45;;
21036;SDS011;10677;50.942;4.028;2023-02-25T11:42:58;9.93;;;1.77;;
21036;SDS011;10677;50.942;4.028;2023-02-25T11:45:52;10.18;;;2.00;;
21036;SDS011;10677;50.942;4.028;2023-02-25T11:49:26;11.18;;;1.92;;
21036;SDS011;10677;50.942;4.028;2023-02-25T11:51:30;16.20;;;1.83;;
21036;SDS011;10677;50.942;4.028;2023-02-25T12:01:13;12.93;;;1.80;;
21036;SDS011;10677;50.942;4.028;2023-02-25T12:06:31;11.98;;;2.00;;
21036;SDS011;10677;50.942;4.028;2023-02-25T12:12:24;12.70;;;2.40;;
21036;SDS011;10677;50.942;4.028;2023-02-25T12:18:12;11.13;;;1.90;;
21036;SDS011;10677;50.942;4.028;2023-02-25T12:26:23;14.32;;;2.17;;
21036;SDS011;10677;50.942;4.028;2023-02-25T12:45:44;8.85;;;1.80;;
21036;SDS011;10677;50.942;4.028;2023-02-25T12:54:24;13.30;;;2.00;;
21036;SDS011;10677;50.942;4.028;2023-02-25T12:57:04;12.82;;;1.80;;
21036;SDS011;10677;50.942;4.028;2023-02-25T13:05:41;13.85;;;2.20;;
21036;SDS011;10677;50.942;4.028;2023-02-25T13:08:52;12.88;;;2.30;;
21036;SDS011;10677;50.942;4.028;2023-02-25T13:39:28;13.40;;;1.95;;
21036;SDS011;10677;50.942;4.028;2023-02-25T13:44:53;12.43;;;2.20;;
21036;SDS011;10677;50.942;4.028;2023-02-25T14:06:19;6.90;;;1.40;;
21036;SDS011;10677;50.942;4.028;2023-02-25T14:20:08;11.18;;;1.45;;
21036;SDS011;10677;50.942;4.028;2023-02-25T14:22:47;3.25;;;0.77;;
21036;SDS011;10677;50.942;4.028;2023-02-25T14:28:06;6.00;;;1.05;;
21036;SDS011;10677;50.942;4.028;2023-02-25T14:31:05;3.47;;;0.80;;
21036;SDS011;10677;50.942;4.028;2023-02-25T14:33:48;6.35;;;1.50;;
21036;SDS011;10677;50.942;4.028;2023-02-25T14:39:14;7.15;;;1.85;;
21036;SDS011;10677;50.942;4.028;2023-02-25T14:44:44;6.22;;;1.67;;
21036;SDS011;10677;50.942;4.028;2023-02-25T14:47:33;9.57;;;2.47;;
21036;SDS011;10677;50.942;4.028;2023-02-25T14:53:10;8.70;;;2.45;;
21036;SDS011;10677;50.942;4.028;2023-02-25T14:58:44;7.07;;;1.95;;
21036;SDS011;10677;50.942;4.028;2023-02-25T15:04:30;6.60;;;1.23;;
21036;SDS011;10677;50.942;4.028;2023-02-25T15:12:31;5.47;;;1.50;;
21036;SDS011;10677;50.942;4.028;2023-02-25T15:15:49;11.30;;;1.85;;
21036;SDS011;10677;50.942;4.028;2023-02-25T15:24:34;6.55;;;2.03;;
21036;SDS011;10677;50.942;4.028;2023-02-25T15:32:49;4.50;;;1.70;;
21036;SDS011;10677;50.942;4.028;2023-02-25T15:35:20;7.78;;;1.77;;
21036;SDS011;10677;50.942;4.028;2023-02-25T15:42:47;9.50;;;1.42;;
21036;SDS011;10677;50.942;4.028;2023-02-25T16:00:51;6.30;;;1.00;;
21036;SDS011;10677;50.942;4.028;2023-02-25T16:06:02;10.35;;;1.40;;
21036;SDS011;10677;50.942;4.028;2023-02-25T16:13:56;5.65;;;1.23;;
21036;SDS011;10677;50.942;4.028;2023-02-25T16:16:24;7.55;;;1.20;;
21036;SDS011;10677;50.942;4.028;2023-02-25T16:18:54;8.43;;;1.60;;
21036;SDS011;10677;50.942;4.028;2023-02-25T16:24:01;7.63;;;1.67;;
21036;SDS011;10677;50.942;4.028;2023-02-25T16:34:45;5.10;;;1.25;;
21036;SDS011;10677;50.942;4.028;2023-02-25T16:40:02;7.07;;;1.77;;
21036;SDS011;10677;50.942;4.028;2023-02-25T16:42:31;8.85;;;1.50;;
21036;SDS011;10677;50.942;4.028;2023-02-25T16:44:58;10.38;;;1.60;;
21036;SDS011;10677;50.942;4.028;2023-02-25T16:47:26;8.40;;;1.40;;
21036;SDS011;10677;50.942;4.028;2023-02-25T16:49:55;7.20;;;1.52;;
21036;SDS011;10677;50.942;4.028;2023-02-25T16:52:25;11.98;;;1.85;;
21036;SDS011;10677;50.942;4.028;2023-02-25T16:54:55;8.40;;;2.03;;
21036;SDS011;10677;50.942;4.028;2023-02-25T16:57:23;3.90;;;1.02;;
21036;SDS011;10677;50.942;4.028;2023-02-25T16:59:50;7.70;;;1.50;;
21036;SDS011;10677;50.942;4.028;2023-02-25T17:02:48;10.93;;;1.90;;
21036;SDS011;10677;50.942;4.028;2023-02-25T17:07:57;6.05;;;1.52;;
21036;SDS011;10677;50.942;4.028;2023-02-25T17:10:29;10.68;;;1.88;;
21036;SDS011;10677;50.942;4.028;2023-02-25T17:13:16;6.82;;;1.65;;
21036;SDS011;10677;50.942;4.028;2023-02-25T17:16:04;7.32;;;1.67;;
21036;SDS011;10677;50.942;4.028;2023-02-25T17:18:41;10.02;;;1.20;;
21036;SDS011;10677;50.942;4.028;2023-02-25T17:23:57;12.50;;;1.65;;
21036;SDS011;10677;50.942;4.028;2023-02-25T17:26:26;7.15;;;1.45;;
21036;SDS011;10677;50.942;4.028;2023-02-25T17:28:54;9.07;;;1.50;;
21036;SDS011;10677;50.942;4.028;2023-02-25T17:31:23;6.07;;;1.90;;
21036;SDS011;10677;50.942;4.028;2023-02-25T17:36:20;12.95;;;1.60;;
21036;SDS011;10677;50.942;4.028;2023-02-25T17:38:55;8.05;;;1.85;;
21036;SDS011;10677;50.942;4.028;2023-02-25T17:41:24;8.55;;;2.90;;
21036;SDS011;10677;50.942;4.028;2023-02-25T17:43:51;6.60;;;2.33;;
21036;SDS011;10677;50.942;4.028;2023-02-25T17:51:41;13.43;;;3.72;;
21036;SDS011;10677;50.942;4.028;2023-02-25T17:54:08;11.30;;;3.42;;
21036;SDS011;10677;50.942;4.028;2023-02-25T17:56:40;13.32;;;3.15;;
21036;SDS011;10677;50.942;4.028;2023-02-25T17:59:10;13.98;;;3.05;;
21036;SDS011;10677;50.942;4.028;2023-02-25T18:01:58;8.07;;;2.40;;
21036;SDS011;10677;50.942;4.028;2023-02-25T18:04:38;11.02;;;1.85;;
21036;SDS011;10677;50.942;4.028;2023-02-25T18:09:57;6.93;;;1.77;;
21036;SDS011;10677;50.942;4.028;2023-02-25T18:15:14;6.47;;;1.77;;
21036;SDS011;10677;50.942;4.028;2023-02-25T18:17:42;9.07;;;1.40;;
21036;SDS011;10677;50.942;4.028;2023-02-25T18:20:26;11.65;;;2.80;;
21036;SDS011;10677;50.942;4.028;2023-02-25T18:23:23;7.70;;;2.42;;
21036;SDS011;10677;50.942;4.028;2023-02-25T18:26:11;5.88;;;2.00;;
21036;SDS011;10677;50.942;4.028;2023-02-25T18:28:45;11.00;;;2.30;;
21036;SDS011;10677;50.942;4.028;2023-02-25T18:31:11;10.43;;;2.95;;
21036;SDS011;10677;50.942;4.028;2023-02-25T18:33:39;8.35;;;2.20;;
21036;SDS011;10677;50.942;4.028;2023-02-25T18:36:05;9.95;;;1.98;;
21036;SDS011;10677;50.942;4.028;2023-02-25T18:38:33;13.02;;;2.50;;
21036;SDS011;10677;50.942;4.028;2023-02-25T18:41:01;10.38;;;2.67;;
21036;SDS011;10677;50.942;4.028;2023-02-25T18:43:30;6.55;;;2.30;;
21036;SDS011;10677;50.942;4.028;2023-02-25T18:45:59;10.77;;;2.60;;
21036;SDS011;10677;50.942;4.028;2023-02-25T18:48:26;8.65;;;2.47;;
21036;SDS011;10677;50.942;4.028;2023-02-25T18:50:53;11.13;;;2.40;;
21036;SDS011;10677;50.942;4.028;2023-02-25T18:53:21;8.10;;;2.33;;
21036;SDS011;10677;50.942;4.028;2023-02-25T18:55:51;9.02;;;2.15;;
21036;SDS011;10677;50.942;4.028;2023-02-25T18:58:19;7.70;;;2.20;;
21036;SDS011;10677;50.942;4.028;2023-02-25T19:00:52;12.20;;;2.35;;
21036;SDS011;10677;50.942;4.028;2023-02-25T19:05:52;8.27;;;1.90;;
21036;SDS011;10677;50.942;4.028;2023-02-25T19:08:17;10.55;;;1.98;;
21036;SDS011;10677;50.942;4.028;2023-02-25T19:10:43;9.30;;;2.00;;
21036;SDS011;10677;50.942;4.028;2023-02-25T19:13:27;6.88;;;2.00;;
21036;SDS011;10677;50.942;4.028;2023-02-25T19:15:58;12.43;;;2.38;;
21036;SDS011;10677;50.942;4.028;2023-02-25T19:18:24;14.40;;;2.03;;
21036;SDS011;10677;50.942;4.028;2023-02-25T19:20:50;9.02;;;2.25;;
21036;SDS011;10677;50.942;4.028;2023-02-25T19:23:16;8.80;;;1.90;;